createdAt,value
2022-12-25T00:00:37.508Z,100639.28
2022-12-25T00:03:43.178Z,100653.69
2022-12-25T00:06:47.811Z,100658.75
2022-12-25T00:09:53.249Z,100662.66
2022-12-25T00:12:57.250Z,100671.41
2022-12-25T00:16:14.242Z,100686.06
2022-12-25T00:19:19.631Z,100669.66
2022-12-25T00:22:23.244Z,100674.81
2022-12-25T00:25:29.504Z,100681.63
2022-12-25T00:28:37.211Z,100690.28
2022-12-25T00:31:40.268Z,100698.91
2022-12-25T00:34:46.163Z,100698.69
2022-12-25T00:37:48.410Z,100703.78
2022-12-25T00:40:50.983Z,100707.03
2022-12-25T00:43:55.551Z,100712.03
2022-12-25T00:47:00.649Z,100701.81
2022-12-25T00:50:05.612Z,100711.19
2022-12-25T00:53:14.628Z,100714.72
2022-12-25T00:56:21.564Z,100720.59
2022-12-25T00:59:28.804Z,100738.56
2022-12-25T01:02:32.088Z,100730.59
2022-12-25T01:05:36.375Z,100719.59
2022-12-25T01:09:05.815Z,100728.66
2022-12-25T01:12:11.183Z,100728.66
2022-12-25T01:15:17.643Z,100729.63
2022-12-25T01:18:23.741Z,100726.25
2022-12-25T01:21:29.275Z,100726.97
2022-12-25T01:24:32.556Z,100739.75
2022-12-25T01:27:36.773Z,100738.81
2022-12-25T01:30:40.707Z,100737.84
2022-12-25T01:33:47.383Z,100740.56
2022-12-25T01:36:53.969Z,100741.91
2022-12-25T01:40:00.172Z,100732.88
2022-12-25T01:43:04.339Z,100745.78
2022-12-25T01:46:12.894Z,100753.53
2022-12-25T01:49:27.015Z,100750.03
2022-12-25T01:52:33.899Z,100742.53
2022-12-25T01:55:42.819Z,100747.00
2022-12-25T01:58:50.433Z,100734.94
2022-12-25T02:01:54.544Z,100739.94
2022-12-25T02:05:10.249Z,100747.44
2022-12-25T02:08:20.181Z,100741.63
2022-12-25T02:11:43.757Z,100734.69
2022-12-25T02:14:52.530Z,100732.31
2022-12-25T02:18:13.820Z,100741.16
2022-12-25T02:21:20.086Z,100739.75
2022-12-25T02:24:40.711Z,100753.47
2022-12-25T02:28:07.317Z,100742.31
2022-12-25T02:31:23.181Z,100735.50
2022-12-25T02:34:39.305Z,100743.31
2022-12-25T02:37:54.187Z,100750.38
2022-12-25T02:41:03.110Z,100757.09
2022-12-25T02:44:36.025Z,100761.50
2022-12-25T02:47:58.750Z,100764.78
2022-12-25T02:51:26.219Z,100764.78
2022-12-25T02:55:07.523Z,100764.00
2022-12-25T02:58:35.281Z,100760.28
2022-12-25T03:02:17.256Z,100761.19
2022-12-25T03:05:45.157Z,100766.16
2022-12-25T03:08:55.949Z,100781.62
2022-12-25T03:12:17.260Z,100785.00
2022-12-25T03:15:41.025Z,100786.00
2022-12-25T03:18:43.928Z,100788.41
2022-12-25T03:22:06.279Z,100793.53
2022-12-25T03:25:29.534Z,100781.50
2022-12-25T03:28:33.661Z,100788.47
2022-12-25T03:32:01.410Z,100787.62
2022-12-25T03:35:28.264Z,100788.38
2022-12-25T03:38:53.589Z,100794.59
2022-12-25T03:42:21.244Z,100810.22
2022-12-25T03:45:59.485Z,100814.84
2022-12-25T03:49:34.939Z,100828.75
2022-12-25T03:53:00.126Z,100815.94
2022-12-25T03:56:25.041Z,100826.22
2022-12-25T03:59:49.949Z,100827.94
2022-12-25T04:03:13.273Z,100822.19
2022-12-25T04:06:35.036Z,100823.16
2022-12-25T04:09:57.110Z,100818.97
2022-12-25T04:13:20.543Z,100813.59
2022-12-25T04:16:43.404Z,100817.03
2022-12-25T04:20:06.295Z,100801.75
2022-12-25T04:23:28.516Z,100812.75
2022-12-25T04:26:50.736Z,100812.97
2022-12-25T04:30:13.491Z,100820.69
2022-12-25T04:33:35.756Z,100827.22
2022-12-25T04:36:39.680Z,100823.78
2022-12-25T04:39:44.090Z,100824.09
2022-12-25T04:42:46.762Z,100815.44
2022-12-25T04:45:58.678Z,100812.94
2022-12-25T04:49:05.322Z,100805.31
2022-12-25T04:52:10.295Z,100802.87
2022-12-25T04:55:13.670Z,100806.25
2022-12-25T04:58:17.784Z,100816.22
2022-12-25T05:01:22.214Z,100823.19
2022-12-25T05:04:26.853Z,100822.34
2022-12-25T05:07:33.308Z,100824.91
2022-12-25T05:10:42.510Z,100828.59
2022-12-25T05:13:47.009Z,100820.06
2022-12-25T05:16:52.247Z,100826.28
2022-12-25T05:19:57.496Z,100831.03
2022-12-25T05:23:02.330Z,100830.31
2022-12-25T05:26:09.694Z,100828.78
2022-12-25T05:29:12.726Z,100828.31
2022-12-25T05:32:20.802Z,100820.06
2022-12-25T05:35:26.505Z,100831.13
2022-12-25T05:38:31.632Z,100826.91
2022-12-25T05:41:36.568Z,100831.81
2022-12-25T05:44:40.236Z,100847.97
2022-12-25T05:47:44.148Z,100845.50
2022-12-25T05:50:47.753Z,100842.19
2022-12-25T05:53:53.246Z,100852.62
2022-12-25T05:56:58.237Z,100854.84
2022-12-25T06:00:02.464Z,100856.88
2022-12-25T06:03:07.362Z,100865.59
2022-12-25T06:06:11.323Z,100862.91
2022-12-25T06:09:15.620Z,100852.75
2022-12-25T06:12:19.791Z,100849.41
2022-12-25T06:15:23.489Z,100850.31
2022-12-25T06:18:27.756Z,100852.91
2022-12-25T06:21:30.587Z,100839.34
2022-12-25T06:24:35.678Z,100849.78
2022-12-25T06:27:42.875Z,100854.34
2022-12-25T06:30:49.774Z,100848.72
2022-12-25T06:33:54.903Z,100862.75
2022-12-25T06:37:00.654Z,100857.75
2022-12-25T06:40:04.757Z,100873.31
2022-12-25T06:43:13.250Z,100873.19
2022-12-25T06:46:17.700Z,100877.69
2022-12-25T06:49:21.931Z,100877.81
2022-12-25T06:52:27.756Z,100877.09
2022-12-25T06:55:37.233Z,100871.13
2022-12-25T06:58:51.174Z,100882.75
2022-12-25T07:02:00.300Z,100894.22
2022-12-25T07:05:10.292Z,100905.16
2022-12-25T07:08:15.197Z,100922.38
2022-12-25T07:11:18.409Z,100930.22
2022-12-25T07:14:25.362Z,100931.72
2022-12-25T07:17:35.153Z,100934.81
2022-12-25T07:20:41.709Z,100943.84
2022-12-25T07:23:49.915Z,100949.69
2022-12-25T07:26:59.022Z,100953.41
2022-12-25T07:30:06.460Z,100944.91
2022-12-25T07:33:12.133Z,100954.53
2022-12-25T07:36:17.753Z,100951.91
2022-12-25T07:39:25.366Z,100955.19
2022-12-25T07:42:33.061Z,100965.28
2022-12-25T07:45:37.806Z,100970.00
2022-12-25T07:48:46.623Z,100961.50
2022-12-25T07:51:52.477Z,100965.22
2022-12-25T07:54:55.763Z,100961.59
2022-12-25T07:58:02.704Z,100968.47
2022-12-25T08:01:18.878Z,100970.25
2022-12-25T08:04:23.633Z,100982.13
2022-12-25T08:07:28.205Z,100986.59
2022-12-25T08:10:36.775Z,100984.81
2022-12-25T08:13:40.938Z,100991.88
2022-12-25T08:16:45.722Z,101006.75
2022-12-25T08:19:48.730Z,101006.19
2022-12-25T08:22:53.213Z,101008.47
2022-12-25T08:26:05.511Z,101010.09
2022-12-25T08:29:09.695Z,101000.66
2022-12-25T08:32:12.909Z,101009.44
2022-12-25T08:35:17.267Z,101008.12
2022-12-25T08:38:20.854Z,101007.34
2022-12-25T08:41:25.874Z,101010.94
2022-12-25T08:44:29.801Z,101020.28
2022-12-25T08:47:33.706Z,101015.56
2022-12-25T08:50:41.415Z,101013.47
2022-12-25T08:53:47.563Z,101013.00
2022-12-25T08:56:50.753Z,101021.31
2022-12-25T08:59:54.170Z,101019.38
2022-12-25T09:02:58.716Z,101016.50
2022-12-25T09:06:08.746Z,101019.09
2022-12-25T09:09:13.380Z,101027.66
2022-12-25T09:12:16.267Z,101025.12
2022-12-25T09:15:20.162Z,101028.31
2022-12-25T09:18:23.568Z,101016.66
2022-12-25T09:21:28.017Z,101022.25
2022-12-25T09:24:34.084Z,101021.22
2022-12-25T09:27:38.554Z,101025.03
2022-12-25T09:30:42.163Z,101028.66
2022-12-25T09:33:47.752Z,101028.47
2022-12-25T09:36:51.561Z,101026.38
2022-12-25T09:39:56.124Z,101023.37
2022-12-25T09:43:02.047Z,101025.25
2022-12-25T09:46:12.680Z,101031.72
2022-12-25T09:49:54.509Z,101025.16
2022-12-25T09:53:08.387Z,101026.00
2022-12-25T09:56:20.590Z,101025.06
2022-12-25T09:59:27.757Z,101022.53
2022-12-25T10:02:58.448Z,101030.16
2022-12-25T10:06:26.082Z,101030.69
2022-12-25T10:09:42.164Z,101032.94
2022-12-25T10:13:07.352Z,101029.25
2022-12-25T10:16:39.853Z,101025.06
2022-12-25T10:20:17.054Z,101015.00
2022-12-25T10:23:29.661Z,101008.75
2022-12-25T10:26:35.553Z,101007.06
2022-12-25T10:29:40.559Z,101006.56
2022-12-25T10:32:45.688Z,101002.84
2022-12-25T10:35:49.416Z,101000.56
2022-12-25T10:38:53.542Z,100998.03
2022-12-25T10:42:28.257Z,101003.84
2022-12-25T10:45:31.675Z,101002.78
2022-12-25T10:48:36.426Z,100999.91
2022-12-25T10:51:40.711Z,101002.97
2022-12-25T10:54:44.752Z,101004.03
2022-12-25T10:57:48.540Z,100997.75
2022-12-25T11:00:58.373Z,100997.97
2022-12-25T11:04:02.979Z,100998.72
2022-12-25T11:07:20.557Z,100998.00
2022-12-25T11:10:32.047Z,100993.28
2022-12-25T11:13:49.889Z,100990.03
2022-12-25T11:16:53.122Z,100980.22
2022-12-25T11:19:59.312Z,100967.62
2022-12-25T11:23:03.161Z,100965.09
2022-12-25T11:26:08.361Z,100976.66
2022-12-25T11:29:30.549Z,100977.19
2022-12-25T11:32:43.546Z,100972.34
2022-12-25T11:35:53.747Z,100971.53
2022-12-25T11:39:02.186Z,100968.59
2022-12-25T11:42:30.323Z,100968.16
2022-12-25T11:45:40.292Z,100967.75
2022-12-25T11:48:57.603Z,100962.53
2022-12-25T11:52:02.277Z,100969.66
2022-12-25T11:55:31.127Z,100964.06
2022-12-25T11:58:39.356Z,100964.47
2022-12-25T12:01:53.254Z,100956.38
2022-12-25T12:05:10.617Z,100962.66
2022-12-25T12:08:15.457Z,100956.59
2022-12-25T12:11:28.886Z,100951.00
2022-12-25T12:14:47.670Z,100956.69
2022-12-25T12:17:50.648Z,100947.25
2022-12-25T12:21:18.944Z,100953.69
2022-12-25T12:24:25.590Z,100954.97
2022-12-25T12:27:37.415Z,100962.31
2022-12-25T12:30:40.583Z,100960.09
2022-12-25T12:33:50.141Z,100970.34
2022-12-25T12:37:18.657Z,100966.06
2022-12-25T12:40:35.233Z,100964.72
2022-12-25T12:43:44.585Z,100969.41
2022-12-25T12:46:59.053Z,100960.00
2022-12-25T12:50:03.063Z,100969.00
2022-12-25T12:53:18.858Z,100968.66
2022-12-25T12:56:22.601Z,100975.09
2022-12-25T12:59:27.362Z,100972.75
2022-12-25T13:02:54.147Z,100970.78
2022-12-25T13:06:06.111Z,100980.06
2022-12-25T13:09:37.164Z,100988.88
2022-12-25T13:12:42.507Z,100981.12
2022-12-25T13:15:49.491Z,100985.75
2022-12-25T13:18:56.054Z,100988.19
2022-12-25T13:22:06.306Z,100983.16
2022-12-25T13:25:21.056Z,100976.28
2022-12-25T13:28:32.604Z,100973.69
2022-12-25T13:31:35.952Z,100976.28
2022-12-25T13:34:42.561Z,100974.22
2022-12-25T13:37:48.312Z,100988.78
2022-12-25T13:41:13.325Z,100987.34
2022-12-25T13:44:26.194Z,100978.22
2022-12-25T13:47:39.673Z,100980.00
2022-12-25T13:50:49.322Z,100978.41
2022-12-25T13:54:03.373Z,100980.41
2022-12-25T13:57:13.965Z,100987.41
2022-12-25T14:00:26.762Z,100984.88
2022-12-25T14:03:46.767Z,100985.63
2022-12-25T14:06:53.553Z,100986.56
2022-12-25T14:10:06.046Z,100980.50
2022-12-25T14:13:14.163Z,100983.44
2022-12-25T14:16:20.447Z,100982.69
2022-12-25T14:19:31.921Z,100985.19
2022-12-25T14:22:36.442Z,100989.25
2022-12-25T14:25:45.056Z,100996.34
2022-12-25T14:29:16.867Z,100985.75
2022-12-25T14:32:29.651Z,100997.13
2022-12-25T14:35:34.908Z,101003.75
2022-12-25T14:38:41.779Z,100998.84
2022-12-25T14:41:54.865Z,100996.72
2022-12-25T14:45:04.868Z,100995.31
2022-12-25T14:48:25.203Z,101003.53
2022-12-25T14:51:30.873Z,101003.37
2022-12-25T14:54:35.072Z,101007.72
2022-12-25T14:57:41.497Z,101008.22
2022-12-25T15:00:46.327Z,101010.41
2022-12-25T15:03:51.533Z,101004.94
2022-12-25T15:07:09.921Z,101005.12
2022-12-25T15:10:58.118Z,101010.63
2022-12-25T15:13:39.525Z,101011.34
2022-12-25T15:16:46.173Z,101013.31
2022-12-25T15:19:49.839Z,101003.78
2022-12-25T15:23:18.361Z,101007.84
2022-12-25T15:26:16.920Z,101005.03
2022-12-25T15:29:44.618Z,101008.34
2022-12-25T15:32:43.925Z,101012.16
2022-12-25T15:35:48.026Z,101006.59
2022-12-25T15:38:52.740Z,101009.66
2022-12-25T15:42:26.035Z,100998.50
2022-12-25T15:45:31.794Z,101009.00
2022-12-25T15:48:35.094Z,101016.41
2022-12-25T15:51:39.310Z,101017.41
2022-12-25T15:54:44.464Z,101026.34
2022-12-25T15:57:51.743Z,101009.94
2022-12-25T16:00:55.734Z,101008.81
2022-12-25T16:04:00.014Z,101014.13
2022-12-25T16:07:04.921Z,101016.16
2022-12-25T16:10:15.097Z,101022.28
2022-12-25T16:13:20.701Z,101018.75
2022-12-25T16:16:27.263Z,101015.22
2022-12-25T16:19:31.004Z,101010.00
2022-12-25T16:22:40.346Z,101017.66
2022-12-25T16:25:45.385Z,101009.16
2022-12-25T16:28:49.098Z,101006.75
2022-12-25T16:31:53.111Z,101006.91
2022-12-25T16:34:57.923Z,101003.63
2022-12-25T16:38:01.788Z,100994.22
2022-12-25T16:41:07.203Z,100989.19
2022-12-25T16:44:10.719Z,100990.88
2022-12-25T16:47:15.502Z,100990.94
2022-12-25T16:50:35.115Z,100998.09
2022-12-25T16:53:45.896Z,101000.84
2022-12-25T16:56:57.256Z,100991.62
2022-12-25T17:00:03.288Z,100992.72
2022-12-25T17:03:06.418Z,100982.91
2022-12-25T17:06:18.318Z,100978.94
2022-12-25T17:09:37.507Z,100972.37
2022-12-25T17:12:49.536Z,100980.78
2022-12-25T17:16:01.914Z,100976.50
2022-12-25T17:19:24.249Z,100978.28
2022-12-25T17:22:32.886Z,100985.16
2022-12-25T17:25:38.491Z,100985.50
2022-12-25T17:28:50.527Z,100980.97
2022-12-25T17:31:53.697Z,100980.50
2022-12-25T17:34:56.004Z,100979.25
2022-12-25T17:38:08.207Z,100973.50
2022-12-25T17:41:18.661Z,100960.06
2022-12-25T17:44:22.271Z,100950.38
2022-12-25T17:47:33.459Z,100942.03
2022-12-25T17:50:41.228Z,100942.44
2022-12-25T17:53:50.300Z,100950.81
2022-12-25T17:57:01.176Z,100954.12
2022-12-25T18:00:09.323Z,100956.19
2022-12-25T18:03:28.870Z,100955.91
2022-12-25T18:06:38.305Z,100962.50
2022-12-25T18:09:44.784Z,100964.66
2022-12-25T18:12:51.816Z,100956.41
2022-12-25T18:15:57.115Z,100959.37
2022-12-25T18:19:12.217Z,100967.19
2022-12-25T18:22:20.108Z,100966.66
2022-12-25T18:25:24.508Z,100949.47
2022-12-25T18:28:34.806Z,100960.75
2022-12-25T18:31:37.869Z,100944.78
2022-12-25T18:34:43.328Z,100949.47
2022-12-25T18:37:49.748Z,100946.94
2022-12-25T18:40:55.687Z,100947.38
2022-12-25T18:44:05.726Z,100946.53
2022-12-25T18:47:08.916Z,100940.69
2022-12-25T18:50:23.995Z,100938.28
2022-12-25T18:53:37.742Z,100942.44
2022-12-25T18:56:40.944Z,100944.03
2022-12-25T18:59:47.855Z,100935.53
2022-12-25T19:02:56.259Z,100927.91
2022-12-25T19:06:08.148Z,100931.44
2022-12-25T19:09:21.467Z,100930.28
2022-12-25T19:12:24.140Z,100926.47
2022-12-25T19:15:38.262Z,100922.84
2022-12-25T19:18:45.581Z,100908.13
2022-12-25T19:21:57.087Z,100919.94
2022-12-25T19:25:02.907Z,100927.66
2022-12-25T19:28:13.793Z,100922.84
2022-12-25T19:31:23.301Z,100928.66
2022-12-25T19:34:32.823Z,100926.97
2022-12-25T19:37:42.433Z,100927.19
2022-12-25T19:41:06.938Z,100927.81
2022-12-25T19:44:09.636Z,100937.56
2022-12-25T19:47:18.551Z,100942.91
2022-12-25T19:50:24.408Z,100942.31
2022-12-25T19:53:38.074Z,100929.41
2022-12-25T19:56:52.599Z,100922.44
2022-12-25T20:00:02.752Z,100921.63
2022-12-25T20:03:07.998Z,100917.84
2022-12-25T20:06:20.646Z,100909.44
2022-12-25T20:09:39.197Z,100886.28
2022-12-25T20:12:49.179Z,100880.25
2022-12-25T20:15:53.394Z,100870.78
2022-12-25T20:19:04.666Z,100881.63
2022-12-25T20:22:14.620Z,100876.91
2022-12-25T20:25:18.680Z,100892.19
2022-12-25T20:28:25.560Z,100897.00
2022-12-25T20:31:37.343Z,100893.81
2022-12-25T20:34:47.471Z,100895.75
2022-12-25T20:37:51.585Z,100883.69
2022-12-25T20:44:38.546Z,100870.56
2022-12-25T20:47:41.090Z,100878.47
2022-12-25T20:50:53.120Z,100866.06
2022-12-25T20:53:58.650Z,100883.41
2022-12-25T20:57:06.155Z,100880.97
2022-12-25T21:00:31.183Z,100887.72
2022-12-25T21:03:37.154Z,100882.56
2022-12-25T21:06:46.576Z,100882.50
2022-12-25T21:09:50.347Z,100884.69
2022-12-25T21:13:00.476Z,100876.97
2022-12-25T21:16:15.323Z,100872.88
2022-12-25T21:19:17.904Z,100863.28
2022-12-25T21:22:25.234Z,100856.56
2022-12-25T21:25:30.316Z,100873.00
2022-12-25T21:28:39.289Z,100874.19
2022-12-25T21:32:03.629Z,100881.59
2022-12-25T21:35:14.223Z,100872.88
2022-12-25T21:38:20.844Z,100862.59
2022-12-25T21:41:24.911Z,100861.19
2022-12-25T21:44:36.118Z,100862.94
2022-12-25T21:48:01.605Z,100860.34
2022-12-25T21:51:32.472Z,100853.97
2022-12-25T21:54:45.607Z,100855.06
2022-12-25T21:57:55.233Z,100860.00
2022-12-25T22:01:05.310Z,100864.37
2022-12-25T22:04:17.389Z,100877.50
2022-12-25T22:07:20.127Z,100882.59
2022-12-25T22:10:22.525Z,100878.31
2022-12-25T22:13:48.259Z,100876.72
2022-12-25T22:17:15.233Z,100882.75
2022-12-25T22:20:40.590Z,100883.41
2022-12-25T22:23:44.746Z,100878.06
2022-12-25T22:26:57.900Z,100879.69
2022-12-25T22:30:17.391Z,100873.78
2022-12-25T22:33:26.763Z,100865.62
2022-12-25T22:36:29.236Z,100861.78
2022-12-25T22:39:40.437Z,100857.56
2022-12-25T22:42:45.632Z,100861.00
2022-12-25T22:45:59.581Z,100862.53
2022-12-25T22:49:08.941Z,100865.97
2022-12-25T22:52:25.164Z,100881.41
2022-12-25T22:55:28.893Z,100878.81
2022-12-25T22:58:31.858Z,100862.47
2022-12-25T23:01:54.157Z,100864.13
2022-12-25T23:04:59.789Z,100859.00
2022-12-25T23:08:25.173Z,100850.34
2022-12-25T23:11:35.198Z,100846.13
2022-12-25T23:14:44.545Z,100855.53
2022-12-25T23:18:10.634Z,100862.59
2022-12-25T23:21:41.487Z,100858.16
2022-12-25T23:25:10.859Z,100864.94
2022-12-25T23:28:40.051Z,100869.09
2022-12-25T23:31:44.415Z,100863.34
2022-12-25T23:35:00.235Z,100861.28
2022-12-25T23:38:12.548Z,100857.31
2022-12-25T23:41:26.915Z,100828.78
2022-12-25T23:44:35.628Z,100835.50
2022-12-25T23:47:43.769Z,100834.25
2022-12-25T23:50:46.463Z,100828.12
2022-12-25T23:54:01.798Z,100831.56
2022-12-25T23:57:07.509Z,100827.28
